createdAt,value
2023-05-14T00:02:08.819Z,13.67
2023-05-14T00:04:35.684Z,13.73
2023-05-14T00:07:02.594Z,13.72
2023-05-14T00:09:30.373Z,13.66
2023-05-14T00:11:57.220Z,13.55
2023-05-14T00:14:24.137Z,13.48
2023-05-14T00:16:54.489Z,13.46
2023-05-14T00:19:21.753Z,13.35
2023-05-14T00:21:48.592Z,13.34
2023-05-14T00:24:15.464Z,13.23
2023-05-14T00:26:42.215Z,13.17
2023-05-14T00:29:09.005Z,13.12
2023-05-14T00:31:35.868Z,13.14
2023-05-14T00:34:03.360Z,13.18
2023-05-14T00:36:30.040Z,13.27
2023-05-14T00:38:56.832Z,13.21
2023-05-14T00:41:23.640Z,13.21
2023-05-14T00:43:51.440Z,13.17
2023-05-14T00:46:18.252Z,13.09
2023-05-14T00:48:45.276Z,12.92
2023-05-14T00:51:12.085Z,12.97
2023-05-14T00:53:39.659Z,13.01
2023-05-14T00:56:08.320Z,13.05
2023-05-14T00:58:35.225Z,13.08
2023-05-14T01:01:02.154Z,13.14
2023-05-14T01:03:31.250Z,13.22
2023-05-14T01:06:13.561Z,13.26
2023-05-14T01:09:05.391Z,13.10
2023-05-14T01:11:44.318Z,13.03
2023-05-14T01:14:43.965Z,13.05
2023-05-14T01:17:15.277Z,13.02
2023-05-14T01:19:44.838Z,13.04
2023-05-14T01:22:12.315Z,13.00
2023-05-14T01:24:39.643Z,13.01
2023-05-14T01:27:48.963Z,12.98
2023-05-14T01:30:28.401Z,12.92
2023-05-14T01:33:00.166Z,12.98
2023-05-14T01:35:29.993Z,13.03
2023-05-14T01:38:06.711Z,13.08
2023-05-14T01:40:34.755Z,13.11
2023-05-14T01:43:02.449Z,13.15
2023-05-14T01:45:30.972Z,13.22
2023-05-14T01:47:58.302Z,13.26
2023-05-14T01:50:25.234Z,13.31
2023-05-14T01:52:56.515Z,13.33
2023-05-14T01:55:27.239Z,13.37
2023-05-14T01:57:54.865Z,13.37
2023-05-14T02:00:26.207Z,13.24
2023-05-14T02:02:53.165Z,13.09
2023-05-14T02:05:20.091Z,13.03
2023-05-14T02:07:46.961Z,12.95
2023-05-14T02:10:13.930Z,12.92
2023-05-14T02:12:40.754Z,12.87
2023-05-14T02:15:09.114Z,12.92
2023-05-14T02:17:36.459Z,12.96
2023-05-14T02:20:03.843Z,12.94
2023-05-14T02:22:30.628Z,12.79
2023-05-14T02:24:57.496Z,12.80
2023-05-14T02:27:24.369Z,12.82
2023-05-14T02:29:51.119Z,12.82
2023-05-14T02:32:17.956Z,12.77
2023-05-14T02:34:45.096Z,12.70
2023-05-14T02:37:11.892Z,12.75
2023-05-14T02:39:38.601Z,12.81
2023-05-14T02:42:07.105Z,12.86
2023-05-14T02:44:33.840Z,12.87
2023-05-14T02:47:00.676Z,12.88
2023-05-14T02:49:27.472Z,12.85
2023-05-14T02:51:57.598Z,12.88
2023-05-14T02:54:24.373Z,12.93
2023-05-14T02:56:51.059Z,12.95
2023-05-14T02:59:17.893Z,12.98
2023-05-14T03:01:45.383Z,12.98
2023-05-14T03:04:12.562Z,12.93
2023-05-14T03:06:39.278Z,12.96
2023-05-14T03:09:06.053Z,12.96
2023-05-14T03:11:32.962Z,12.97
2023-05-14T03:13:59.716Z,13.03
2023-05-14T03:16:26.745Z,13.00
2023-05-14T03:18:53.654Z,13.01
2023-05-14T03:21:20.420Z,13.01
2023-05-14T03:23:48.790Z,13.02
2023-05-14T03:26:18.519Z,13.05
2023-05-14T03:28:48.754Z,13.09
2023-05-14T03:31:15.672Z,13.14
2023-05-14T03:33:42.515Z,13.14
2023-05-14T03:36:09.450Z,13.18
2023-05-14T03:38:36.886Z,13.16
2023-05-14T03:41:03.620Z,13.20
2023-05-14T03:43:30.493Z,13.20
2023-05-14T03:45:57.633Z,13.17
2023-05-14T03:48:24.579Z,13.16
2023-05-14T03:50:52.260Z,13.18
2023-05-14T03:53:19.047Z,13.22
2023-05-14T03:55:46.658Z,13.19
2023-05-14T03:58:14.565Z,13.16
2023-05-14T04:00:42.874Z,13.17
2023-05-14T04:03:11.355Z,13.18
2023-05-14T04:05:38.219Z,13.13
2023-05-14T04:08:05.160Z,13.14
2023-05-14T04:10:32.308Z,13.16
2023-05-14T04:13:00.372Z,13.17
2023-05-14T04:15:31.473Z,13.19
2023-05-14T04:17:58.321Z,13.18
2023-05-14T04:20:25.317Z,13.20
2023-05-14T04:22:52.546Z,13.13
2023-05-14T04:25:20.033Z,13.08
2023-05-14T04:27:46.811Z,13.05
2023-05-14T04:30:13.723Z,12.99
2023-05-14T04:32:40.914Z,13.00
2023-05-14T04:35:09.342Z,12.92
2023-05-14T04:37:36.187Z,12.95
2023-05-14T04:40:02.961Z,13.01
2023-05-14T04:42:29.733Z,13.07
2023-05-14T04:44:56.382Z,13.10
2023-05-14T04:47:23.280Z,13.12
2023-05-14T04:49:49.997Z,13.13
2023-05-14T04:52:16.736Z,13.15
2023-05-14T04:54:43.512Z,13.17
2023-05-14T04:57:10.276Z,13.20
2023-05-14T04:59:36.961Z,13.21
2023-05-14T05:02:03.896Z,13.25
2023-05-14T05:04:30.781Z,13.29
2023-05-14T05:06:57.601Z,13.29
2023-05-14T05:09:24.456Z,13.36
2023-05-14T05:11:51.355Z,13.38
2023-05-14T05:14:18.067Z,13.37
2023-05-14T05:16:45.106Z,13.37
2023-05-14T05:19:12.138Z,13.43
2023-05-14T05:21:40.863Z,13.47
2023-05-14T05:24:08.747Z,13.51
2023-05-14T05:26:38.581Z,13.52
2023-05-14T05:29:05.594Z,13.50
2023-05-14T05:31:32.640Z,13.49
2023-05-14T05:34:00.305Z,13.49
2023-05-14T05:36:27.468Z,13.39
2023-05-14T05:38:55.550Z,13.38
2023-05-14T05:41:22.804Z,13.44
2023-05-14T05:43:49.513Z,13.48
2023-05-14T05:46:16.435Z,13.52
2023-05-14T05:48:43.246Z,13.59
2023-05-14T05:51:10.089Z,13.61
2023-05-14T05:53:36.908Z,13.66
2023-05-14T05:56:03.771Z,13.72
2023-05-14T05:58:30.517Z,13.75
2023-05-14T06:00:58.302Z,13.78
2023-05-14T06:03:25.245Z,13.81
2023-05-14T06:05:52.750Z,13.85
2023-05-14T06:08:19.598Z,13.87
2023-05-14T06:10:47.626Z,13.93
2023-05-14T06:13:14.793Z,13.94
2023-05-14T06:15:41.582Z,13.93
2023-05-14T06:18:08.483Z,13.93
2023-05-14T06:20:35.456Z,13.93
2023-05-14T06:23:02.235Z,13.98
2023-05-14T06:25:29.135Z,13.91
2023-05-14T06:27:56.000Z,13.86
2023-05-14T06:30:23.137Z,13.85
2023-05-14T06:32:50.306Z,13.86
2023-05-14T06:35:17.550Z,13.89
2023-05-14T06:37:44.648Z,13.92
2023-05-14T06:40:12.641Z,13.97
2023-05-14T06:42:39.360Z,14.00
2023-05-14T06:45:06.737Z,14.01
2023-05-14T06:47:33.692Z,13.97
2023-05-14T06:50:01.924Z,13.96
2023-05-14T06:52:28.823Z,14.00
2023-05-14T06:54:55.548Z,13.99
2023-05-14T06:57:22.356Z,14.00
2023-05-14T06:59:49.172Z,14.05
2023-05-14T07:02:15.919Z,14.07
2023-05-14T07:04:42.729Z,14.05
2023-05-14T07:07:10.810Z,14.08
2023-05-14T07:09:37.562Z,14.11
2023-05-14T07:12:04.891Z,14.14
2023-05-14T07:14:31.583Z,14.14
2023-05-14T07:16:58.420Z,14.15
2023-05-14T07:19:25.267Z,14.17
2023-05-14T07:21:52.062Z,14.21
2023-05-14T07:24:18.780Z,14.21
2023-05-14T07:26:45.824Z,14.20
2023-05-14T07:29:12.658Z,14.21
2023-05-14T07:31:39.449Z,14.24
2023-05-14T07:34:06.350Z,14.26
2023-05-14T07:36:33.340Z,14.23
2023-05-14T07:39:00.563Z,14.21
2023-05-14T07:41:27.357Z,14.22
2023-05-14T07:43:54.130Z,14.22
2023-05-14T07:46:21.133Z,14.20
2023-05-14T07:48:50.303Z,14.22
2023-05-14T07:51:17.094Z,14.22
2023-05-14T07:53:43.759Z,14.20
2023-05-14T07:56:10.614Z,14.23
2023-05-14T07:58:37.543Z,14.24
2023-05-14T08:01:07.263Z,14.26
2023-05-14T08:03:34.393Z,14.31
2023-05-14T08:06:01.314Z,14.29
2023-05-14T08:08:28.020Z,14.27
2023-05-14T08:10:54.765Z,14.28
2023-05-14T08:13:21.785Z,14.30
2023-05-14T08:15:48.641Z,14.33
2023-05-14T08:18:15.522Z,14.34
2023-05-14T08:20:42.312Z,14.37
2023-05-14T08:23:09.386Z,14.34
2023-05-14T08:25:36.248Z,14.36
2023-05-14T08:28:03.094Z,14.38
2023-05-14T08:30:29.904Z,14.43
2023-05-14T08:32:59.858Z,14.46
2023-05-14T08:35:26.676Z,14.47
2023-05-14T08:37:53.501Z,14.49
2023-05-14T08:40:20.854Z,14.51
2023-05-14T08:42:48.444Z,14.50
2023-05-14T08:45:20.217Z,14.49
2023-05-14T08:47:51.653Z,14.52
2023-05-14T08:50:23.639Z,14.55
2023-05-14T08:52:51.289Z,14.62
2023-05-14T08:55:18.904Z,14.62
2023-05-14T08:57:49.107Z,14.64
2023-05-14T09:00:16.119Z,14.65
2023-05-14T09:02:44.841Z,14.66
2023-05-14T09:05:12.529Z,14.69
2023-05-14T09:07:39.511Z,14.69
2023-05-14T09:10:09.015Z,14.71
2023-05-14T09:12:35.964Z,14.71
2023-05-14T09:15:02.983Z,14.70
2023-05-14T09:17:30.072Z,14.71
2023-05-14T09:19:56.968Z,14.73
2023-05-14T09:22:23.847Z,14.75
2023-05-14T09:25:12.523Z,14.79
2023-05-14T09:27:39.481Z,14.80
2023-05-14T09:30:06.660Z,14.83
2023-05-14T09:32:38.227Z,14.85
2023-05-14T09:35:21.671Z,14.89
2023-05-14T09:37:50.589Z,14.89
2023-05-14T09:40:19.695Z,14.90
2023-05-14T09:42:46.908Z,14.90
2023-05-14T09:45:14.846Z,14.98
2023-05-14T09:47:42.222Z,14.99
2023-05-14T09:50:09.747Z,15.03
2023-05-14T09:52:37.336Z,15.05
2023-05-14T09:55:04.529Z,15.05
2023-05-14T09:57:31.411Z,15.06
2023-05-14T09:59:58.152Z,15.07
2023-05-14T10:02:26.800Z,15.11
2023-05-14T10:04:54.893Z,15.12
2023-05-14T10:07:37.090Z,15.17
2023-05-14T10:10:08.764Z,15.17
2023-05-14T10:12:40.172Z,15.17
2023-05-14T10:15:19.680Z,15.19
2023-05-14T10:17:51.942Z,15.19
2023-05-14T10:20:19.578Z,15.23
2023-05-14T10:22:46.482Z,15.21
2023-05-14T10:25:13.975Z,15.26
2023-05-14T10:27:42.483Z,15.29
2023-05-14T10:30:13.070Z,15.30
2023-05-14T10:32:41.925Z,15.32
2023-05-14T10:35:20.801Z,15.35
2023-05-14T10:37:51.253Z,15.39
2023-05-14T10:40:19.394Z,15.46
2023-05-14T10:42:47.317Z,15.57
2023-05-14T10:45:15.858Z,15.61
2023-05-14T10:47:46.459Z,15.62
2023-05-14T10:50:14.394Z,15.65
2023-05-14T10:52:45.585Z,15.71
2023-05-14T10:55:16.882Z,15.73
2023-05-14T10:57:46.289Z,15.78
2023-05-14T11:00:14.727Z,15.91
2023-05-14T11:02:43.966Z,15.86
2023-05-14T11:05:17.295Z,15.88
2023-05-14T11:07:46.469Z,15.87
2023-05-14T11:10:16.359Z,15.89
2023-05-14T11:12:48.249Z,15.88
2023-05-14T11:15:20.632Z,15.89
2023-05-14T11:17:48.509Z,15.89
2023-05-14T11:20:16.860Z,15.91
2023-05-14T11:22:45.058Z,15.90
2023-05-14T11:25:14.860Z,15.91
2023-05-14T11:27:44.584Z,15.93
2023-05-14T11:30:20.005Z,16.04
2023-05-14T11:32:48.500Z,16.07
2023-05-14T11:35:15.829Z,16.08
2023-05-14T11:37:43.388Z,16.15
2023-05-14T11:40:16.718Z,16.15
2023-05-14T11:42:43.861Z,16.26
2023-05-14T11:45:26.500Z,16.34
2023-05-14T11:47:54.883Z,16.38
2023-05-14T11:50:24.652Z,16.49
2023-05-14T11:52:56.895Z,16.53
2023-05-14T11:55:23.940Z,16.65
2023-05-14T11:57:51.531Z,16.76
2023-05-14T12:00:22.247Z,16.84
2023-05-14T12:02:50.048Z,16.89
2023-05-14T12:05:17.293Z,16.86
2023-05-14T12:07:47.590Z,16.87
2023-05-14T12:10:15.107Z,16.91
2023-05-14T12:12:47.164Z,17.09
2023-05-14T12:15:16.816Z,17.30
2023-05-14T12:17:50.052Z,17.49
2023-05-14T12:20:17.403Z,17.58
2023-05-14T12:22:44.337Z,17.73
2023-05-14T12:25:15.793Z,17.80
2023-05-14T12:27:45.358Z,17.86
2023-05-14T12:30:21.211Z,17.89
2023-05-14T12:32:51.840Z,17.91
2023-05-14T12:35:19.279Z,17.88
2023-05-14T12:37:46.319Z,17.99
2023-05-14T12:40:13.447Z,18.02
2023-05-14T12:42:40.318Z,18.04
2023-05-14T12:45:08.749Z,18.06
2023-05-14T12:47:37.171Z,18.09
2023-05-14T12:50:05.068Z,18.02
2023-05-14T12:55:01.868Z,17.83
2023-05-14T12:57:30.417Z,17.82
2023-05-14T12:59:57.706Z,17.80
2023-05-14T13:02:24.458Z,17.96
2023-05-14T13:04:51.278Z,18.07
2023-05-14T13:07:18.515Z,18.21
2023-05-14T13:09:45.468Z,18.19
2023-05-14T13:12:12.203Z,18.27
2023-05-14T13:14:39.017Z,18.25
2023-05-14T13:17:07.149Z,18.27
2023-05-14T13:19:35.072Z,18.30
2023-05-14T13:22:01.958Z,18.35
2023-05-14T13:24:28.887Z,18.45
2023-05-14T13:26:55.951Z,18.55
2023-05-14T13:29:22.972Z,18.71
2023-05-14T13:31:50.259Z,18.79
2023-05-14T13:34:17.081Z,18.87
2023-05-14T13:36:44.045Z,19.01
2023-05-14T13:39:14.546Z,19.11
2023-05-14T13:41:41.641Z,19.06
2023-05-14T13:44:08.415Z,19.16
2023-05-14T13:46:35.396Z,19.06
2023-05-14T13:49:02.244Z,18.97
2023-05-14T13:51:29.033Z,18.96
2023-05-14T13:53:56.233Z,19.03
2023-05-14T13:56:23.358Z,19.15
2023-05-14T13:58:50.229Z,19.22
2023-05-14T14:01:17.150Z,19.14
2023-05-14T14:03:44.020Z,19.07
2023-05-14T14:06:12.200Z,18.98
2023-05-14T14:08:39.153Z,18.85
2023-05-14T14:11:06.048Z,18.69
2023-05-14T14:13:32.752Z,18.66
2023-05-14T14:15:59.591Z,18.68
2023-05-14T14:18:26.944Z,18.63
2023-05-14T14:20:53.857Z,18.54
2023-05-14T14:23:21.040Z,18.51
2023-05-14T14:25:47.876Z,18.46
2023-05-14T14:28:14.725Z,18.43
2023-05-14T14:30:41.732Z,18.32
2023-05-14T14:33:08.595Z,18.25
2023-05-14T14:35:36.388Z,18.19
2023-05-14T14:38:03.315Z,18.12
2023-05-14T14:40:33.455Z,18.16
2023-05-14T14:43:00.497Z,18.05
2023-05-14T14:45:27.305Z,17.93
2023-05-14T14:48:25.987Z,17.90
2023-05-14T14:50:53.571Z,17.83
2023-05-14T14:53:21.547Z,17.79
2023-05-14T14:55:49.094Z,17.83
2023-05-14T14:58:15.947Z,17.83
2023-05-14T15:00:43.447Z,17.79
2023-05-14T15:03:10.688Z,17.82
2023-05-14T15:05:37.871Z,17.94
2023-05-14T15:08:05.053Z,18.03
2023-05-14T15:10:32.896Z,18.09
2023-05-14T15:13:00.142Z,18.12
2023-05-14T15:15:26.956Z,18.10
2023-05-14T15:17:53.958Z,18.17
2023-05-14T15:20:20.919Z,18.14
2023-05-14T15:22:49.119Z,18.08
2023-05-14T15:25:15.976Z,18.15
2023-05-14T15:27:42.873Z,18.03
2023-05-14T15:30:12.941Z,17.93
2023-05-14T15:32:39.811Z,17.81
2023-05-14T15:35:07.084Z,17.63
2023-05-14T15:37:44.232Z,17.48
2023-05-14T15:40:12.150Z,17.35
2023-05-14T15:42:42.189Z,17.30
2023-05-14T15:45:10.497Z,17.25
2023-05-14T15:47:37.592Z,17.27
2023-05-14T15:50:05.453Z,17.30
2023-05-14T15:52:32.470Z,17.22
2023-05-14T15:54:59.727Z,17.14
2023-05-14T15:57:26.558Z,17.12
2023-05-14T15:59:53.382Z,17.13
2023-05-14T16:02:20.245Z,17.03
2023-05-14T16:04:48.786Z,16.98
2023-05-14T16:07:16.172Z,16.97
2023-05-14T16:09:43.036Z,16.87
2023-05-14T16:12:09.786Z,16.77
2023-05-14T16:14:36.703Z,16.69
2023-05-14T16:17:03.668Z,16.63
2023-05-14T16:19:30.653Z,16.64
2023-05-14T16:21:57.547Z,16.59
2023-05-14T16:24:24.391Z,16.53
2023-05-14T16:26:51.566Z,16.49
2023-05-14T16:29:18.449Z,16.53
2023-05-14T16:31:45.298Z,16.47
2023-05-14T16:34:12.164Z,16.50
2023-05-14T16:36:39.271Z,16.44
2023-05-14T16:39:07.690Z,16.50
2023-05-14T16:41:35.871Z,16.53
2023-05-14T16:44:03.043Z,16.61
2023-05-14T16:46:31.203Z,16.69
2023-05-14T16:48:58.217Z,16.68
2023-05-14T16:51:25.098Z,16.75
2023-05-14T16:53:52.138Z,16.98
2023-05-14T16:56:19.352Z,16.98
2023-05-14T16:58:46.245Z,16.92
2023-05-14T17:01:13.075Z,16.91
2023-05-14T17:03:39.928Z,16.89
2023-05-14T17:06:07.411Z,16.89
2023-05-14T17:08:35.631Z,16.80
2023-05-14T17:11:05.989Z,16.71
2023-05-14T17:13:33.283Z,16.69
2023-05-14T17:16:00.984Z,16.68
2023-05-14T17:18:28.350Z,16.55
2023-05-14T17:20:55.213Z,16.45
2023-05-14T17:23:22.009Z,16.37
2023-05-14T17:25:48.775Z,16.34
2023-05-14T17:28:15.758Z,16.33
2023-05-14T17:30:42.533Z,16.27
2023-05-14T17:33:09.462Z,16.29
2023-05-14T17:35:37.765Z,16.28
2023-05-14T17:38:04.900Z,16.28
2023-05-14T17:40:31.861Z,16.17
2023-05-14T17:42:58.701Z,16.14
2023-05-14T17:45:26.664Z,16.14
2023-05-14T17:47:53.760Z,16.12
2023-05-14T17:50:20.581Z,16.13
2023-05-14T17:52:47.700Z,16.15
2023-05-14T17:55:14.559Z,16.13
2023-05-14T17:57:42.173Z,16.13
2023-05-14T18:00:09.428Z,16.09
2023-05-14T18:02:39.554Z,16.08
2023-05-14T18:05:06.744Z,15.99
2023-05-14T18:07:33.533Z,15.96
2023-05-14T18:10:00.462Z,15.94
2023-05-14T18:12:27.569Z,15.92
2023-05-14T18:14:54.500Z,15.89
2023-05-14T18:17:21.513Z,15.84
2023-05-14T18:19:48.623Z,15.82
2023-05-14T18:22:15.747Z,15.76
2023-05-14T18:24:44.345Z,15.75
2023-05-14T18:27:11.475Z,15.70
2023-05-14T18:29:38.365Z,15.67
2023-05-14T18:32:05.908Z,15.61
2023-05-14T18:34:33.337Z,15.60
2023-05-14T18:37:00.206Z,15.54
2023-05-14T18:39:27.177Z,15.53
2023-05-14T18:41:55.285Z,15.49
2023-05-14T18:44:23.003Z,15.50
2023-05-14T18:46:50.115Z,15.45
2023-05-14T18:49:16.936Z,15.42
2023-05-14T18:51:43.888Z,15.37
2023-05-14T18:54:11.529Z,15.33
2023-05-14T18:56:40.088Z,15.33
2023-05-14T18:59:07.065Z,15.29
2023-05-14T19:01:34.000Z,15.27
2023-05-14T19:04:03.104Z,15.24
2023-05-14T19:06:31.838Z,15.21
2023-05-14T19:08:59.111Z,15.18
2023-05-14T19:11:26.388Z,15.18
2023-05-14T19:13:53.466Z,15.23
2023-05-14T19:16:20.673Z,15.20
2023-05-14T19:18:47.678Z,15.19
2023-05-14T19:21:17.479Z,15.19
2023-05-14T19:23:44.448Z,15.20
2023-05-14T19:26:11.424Z,15.21
2023-05-14T19:28:39.080Z,15.23
2023-05-14T19:31:06.333Z,15.19
2023-05-14T19:33:33.449Z,15.22
2023-05-14T19:36:01.505Z,15.22
2023-05-14T19:38:28.386Z,15.23
2023-05-14T19:40:57.078Z,15.22
2023-05-14T19:43:25.599Z,15.23
2023-05-14T19:45:52.618Z,15.24
2023-05-14T19:48:19.729Z,15.20
2023-05-14T19:50:47.738Z,15.17
2023-05-14T19:53:14.697Z,15.15
2023-05-14T19:55:41.896Z,15.13
2023-05-14T19:58:09.051Z,15.18
2023-05-14T20:00:37.180Z,15.21
2023-05-14T20:03:06.260Z,15.27
2023-05-14T20:05:37.143Z,15.28
2023-05-14T20:08:06.878Z,15.23
2023-05-14T20:10:33.928Z,15.17
2023-05-14T20:13:00.998Z,15.21
2023-05-14T20:15:27.937Z,15.26
2023-05-14T20:17:55.014Z,15.27
2023-05-14T20:20:22.065Z,15.32
2023-05-14T20:22:49.002Z,15.31
2023-05-14T20:25:16.309Z,15.31
2023-05-14T20:27:43.183Z,15.32
2023-05-14T20:30:10.551Z,15.32
2023-05-14T20:32:37.542Z,15.29
2023-05-14T20:35:05.259Z,15.26
2023-05-14T20:37:33.195Z,15.21
2023-05-14T20:40:01.445Z,15.23
2023-05-14T20:42:28.666Z,15.25
2023-05-14T20:44:55.657Z,15.22
2023-05-14T20:47:26.678Z,15.21
2023-05-14T20:49:54.049Z,15.14
2023-05-14T20:52:21.043Z,15.15
2023-05-14T20:54:49.128Z,15.17
2023-05-14T20:57:16.290Z,15.18
2023-05-14T20:59:43.279Z,15.22
2023-05-14T21:02:10.326Z,15.24
2023-05-14T21:04:37.999Z,15.25
2023-05-14T21:07:06.243Z,15.28
2023-05-14T21:09:33.245Z,15.24
2023-05-14T21:12:00.210Z,15.24
2023-05-14T21:14:27.180Z,15.21
2023-05-14T21:16:53.974Z,15.21
2023-05-14T21:19:21.030Z,15.19
2023-05-14T21:21:47.922Z,15.17
2023-05-14T21:24:16.820Z,15.15
2023-05-14T21:26:43.832Z,15.08
2023-05-14T21:29:11.171Z,15.00
2023-05-14T21:31:37.965Z,14.97
2023-05-14T21:34:04.931Z,14.98
2023-05-14T21:36:31.928Z,14.99
2023-05-14T21:38:58.808Z,14.95
2023-05-14T21:41:25.801Z,14.96
2023-05-14T21:43:52.793Z,14.94
2023-05-14T21:46:19.778Z,14.92
2023-05-14T21:48:46.740Z,14.90
2023-05-14T21:51:13.566Z,14.83
2023-05-14T21:53:40.336Z,14.81
2023-05-14T21:56:08.283Z,14.79
2023-05-14T21:58:36.051Z,14.74
2023-05-14T22:01:02.963Z,14.76
2023-05-14T22:03:30.013Z,14.72
2023-05-14T22:05:57.392Z,14.65
2023-05-14T22:08:24.370Z,14.56
2023-05-14T22:10:51.121Z,14.48
2023-05-14T22:13:17.944Z,14.47
2023-05-14T22:15:44.784Z,14.48
2023-05-14T22:18:12.996Z,14.49
2023-05-14T22:20:44.282Z,14.38
2023-05-14T22:23:11.792Z,14.23
2023-05-14T22:25:38.584Z,14.17
2023-05-14T22:28:05.316Z,14.16
2023-05-14T22:30:32.016Z,14.12
2023-05-14T22:32:58.742Z,14.13
2023-05-14T22:35:25.866Z,14.06
2023-05-14T22:37:52.858Z,13.78
2023-05-14T22:40:19.673Z,13.59
2023-05-14T22:42:46.446Z,13.46
2023-05-14T22:45:13.296Z,13.49
2023-05-14T22:47:40.756Z,13.57
2023-05-14T22:50:11.537Z,13.63
2023-05-14T22:52:39.228Z,13.70
2023-05-14T22:55:07.085Z,13.71
2023-05-14T22:57:34.651Z,13.75
2023-05-14T23:00:01.529Z,13.75
2023-05-14T23:02:28.458Z,13.68
2023-05-14T23:04:55.602Z,13.61
2023-05-14T23:07:22.657Z,13.59
2023-05-14T23:09:49.364Z,13.67
2023-05-14T23:12:16.251Z,13.70
2023-05-14T23:14:43.045Z,13.65
2023-05-14T23:17:09.838Z,13.45
2023-05-14T23:19:37.035Z,13.52
2023-05-14T23:22:03.878Z,13.58
2023-05-14T23:24:30.623Z,13.67
2023-05-14T23:26:57.403Z,13.70
2023-05-14T23:29:24.121Z,13.75
2023-05-14T23:31:51.175Z,13.79
2023-05-14T23:34:18.564Z,13.83
2023-05-14T23:36:45.570Z,13.87
2023-05-14T23:39:12.510Z,13.86
2023-05-14T23:41:39.288Z,13.88
2023-05-14T23:44:06.194Z,13.80
2023-05-14T23:46:33.310Z,13.87
2023-05-14T23:49:01.479Z,13.89
2023-05-14T23:51:28.345Z,13.87
2023-05-14T23:53:58.501Z,13.90
2023-05-14T23:56:26.223Z,13.95
2023-05-14T23:58:53.237Z,14.00
